Time;durP1;ratioP1;P1;durP2;ratioP2;P2;SDS_P1;SDS_P2;PMS_P1;PMS_P2;Temp;Humidity;BMP_temperature;BMP_pressure;BME280_temperature;BME280_humidity;BME280_pressure;Samples;Min_cycle;Max_cycle;Signal;HPM_P1;HPM_P2
2023/05/28 00:00:45;;;;;;;10.90;3.63;;;10.30;99.90;;;;;;5030424;28;20100;-84
2023/05/28 00:03:12;;;;;;;10.63;3.08;;;10.40;99.90;;;;;;5043701;28;20037;-85
2023/05/28 00:05:38;;;;;;;8.10;3.00;;;10.40;99.90;;;;;;5043284;28;20099;-85
2023/05/28 00:08:04;;;;;;;6.13;3.03;;;10.40;99.90;;;;;;5022594;28;20177;-84
2023/05/28 00:10:30;;;;;;;7.68;3.40;;;10.40;99.90;;;;;;5008822;28;20680;-85
2023/05/28 00:12:56;;;;;;;7.40;3.65;;;10.50;99.90;;;;;;5009349;28;20518;-85
2023/05/28 00:15:21;;;;;;;10.25;3.28;;;10.50;99.90;;;;;;5015852;28;20523;-85
2023/05/28 00:17:47;;;;;;;8.05;3.20;;;10.40;99.90;;;;;;5010335;28;20052;-84
2023/05/28 00:20:13;;;;;;;8.52;3.50;;;10.30;99.90;;;;;;5015571;28;20060;-83
2023/05/28 00:22:39;;;;;;;9.32;3.67;;;10.30;99.90;;;;;;5009841;28;20045;-83
2023/05/28 00:25:05;;;;;;;9.20;3.08;;;10.30;99.90;;;;;;5007920;28;20137;-85
2023/05/28 00:27:31;;;;;;;8.70;3.25;;;10.30;99.90;;;;;;5010781;28;20034;-85
2023/05/28 00:29:57;;;;;;;10.32;3.63;;;10.40;99.90;;;;;;5022658;28;20088;-85
2023/05/28 00:32:23;;;;;;;7.00;3.13;;;10.30;99.90;;;;;;5004116;28;20118;-84
2023/05/28 00:34:49;;;;;;;8.73;3.30;;;10.30;99.90;;;;;;5036396;28;20107;-85
2023/05/28 00:37:15;;;;;;;6.22;2.97;;;10.30;99.90;;;;;;5020949;28;20045;-85
2023/05/28 00:39:41;;;;;;;6.67;3.20;;;10.30;99.90;;;;;;5019673;28;20053;-85
2023/05/28 00:42:07;;;;;;;7.88;3.00;;;10.30;99.90;;;;;;5024679;28;20038;-85
2023/05/28 00:44:34;;;;;;;7.53;2.95;;;10.30;99.90;;;;;;5031505;28;20120;-85
2023/05/28 00:47:00;;;;;;;6.13;3.35;;;10.30;99.90;;;;;;4998056;28;20132;-85
2023/05/28 00:49:27;;;;;;;6.43;3.08;;;10.30;99.90;;;;;;5032524;28;20028;-85
2023/05/28 00:51:55;;;;;;;6.53;2.70;;;10.30;99.90;;;;;;5013461;28;20607;-84
2023/05/28 00:54:21;;;;;;;7.07;3.33;;;10.40;99.90;;;;;;5050318;28;20381;-84
2023/05/28 00:56:48;;;;;;;11.95;3.65;;;10.30;99.90;;;;;;5012719;28;20076;-84
2023/05/28 00:59:16;;;;;;;9.27;3.30;;;10.40;99.90;;;;;;5014484;28;20057;-86
2023/05/28 01:01:42;;;;;;;9.23;3.38;;;10.40;99.90;;;;;;5015050;28;20096;-85
2023/05/28 01:04:08;;;;;;;8.82;3.10;;;10.40;99.90;;;;;;5015707;28;20511;-86
2023/05/28 01:06:39;;;;;;;7.47;3.55;;;10.40;99.90;;;;;;5010677;28;20045;-86
2023/05/28 01:09:08;;;;;;;10.07;3.65;;;10.40;99.90;;;;;;5000133;28;20038;-86
2023/05/28 01:11:35;;;;;;;6.25;3.03;;;10.40;99.90;;;;;;5013748;28;20053;-86
2023/05/28 01:14:02;;;;;;;;;;;10.40;99.90;;;;;;5013682;28;20527;-86
2023/05/28 01:16:28;;;;;;;8.20;3.38;;;10.40;99.90;;;;;;5030975;28;20434;-86
2023/05/28 01:18:55;;;;;;;11.10;3.13;;;10.40;99.90;;;;;;4999168;28;20049;-85
2023/05/28 01:21:27;;;;;;;8.93;3.50;;;10.40;99.90;;;;;;5030166;28;20037;-86
2023/05/28 01:23:54;;;;;;;8.40;3.53;;;10.40;99.90;;;;;;5001077;28;20131;-87
2023/05/28 01:26:21;;;;;;;7.68;3.15;;;10.40;99.90;;;;;;5023815;28;20050;-87
2023/05/28 01:28:48;;;;;;;8.82;3.85;;;10.40;99.90;;;;;;4999604;28;20045;-85
2023/05/28 01:31:15;;;;;;;7.07;3.00;;;10.30;99.90;;;;;;5018127;28;20041;-85
2023/05/28 01:33:43;;;;;;;8.90;3.50;;;10.30;99.90;;;;;;5000995;28;20073;-85
2023/05/28 01:36:32;;;;;;;8.20;3.40;;;10.20;99.90;;;;;;5014662;28;20076;-86
2023/05/28 01:39:01;;;;;;;;;;;10.20;99.90;;;;;;5014471;28;20047;-86
2023/05/28 01:41:28;;;;;;;8.13;3.70;;;10.20;99.90;;;;;;5042561;28;19931;-84
2023/05/28 01:43:56;;;;;;;9.95;3.50;;;10.20;99.90;;;;;;5028811;28;20037;-84
2023/05/28 01:46:22;;;;;;;6.88;3.17;;;10.10;99.90;;;;;;5011910;28;20054;-85
2023/05/28 01:48:49;;;;;;;7.27;3.50;;;10.10;99.90;;;;;;5022339;28;20033;-86
2023/05/28 01:51:22;;;;;;;8.13;3.45;;;10.10;99.90;;;;;;5031900;28;20049;-84
2023/05/28 01:53:48;;;;;;;6.78;3.28;;;10.10;99.90;;;;;;5007743;28;20056;-84
2023/05/28 01:56:13;;;;;;;10.95;3.80;;;10.20;99.90;;;;;;5033950;28;20462;-84
2023/05/28 01:58:39;;;;;;;7.10;3.20;;;10.20;99.90;;;;;;5014380;28;20049;-85
2023/05/28 02:01:17;;;;;;;9.23;4.00;;;10.20;99.90;;;;;;5017699;28;20053;-83
2023/05/28 02:03:43;;;;;;;11.57;3.85;;;10.30;99.90;;;;;;5013841;28;20045;-86
2023/05/28 02:06:09;;;;;;;8.02;3.47;;;10.30;99.90;;;;;;5020943;28;20499;-85
2023/05/28 02:08:35;;;;;;;8.13;3.63;;;10.30;99.90;;;;;;4995630;28;20052;-84
2023/05/28 02:11:00;;;;;;;8.85;3.45;;;10.30;99.90;;;;;;5039725;28;20589;-83
2023/05/28 02:13:27;;;;;;;6.15;3.40;;;10.30;99.90;;;;;;5032522;28;20045;-85
2023/05/28 02:15:57;;;;;;;7.45;3.53;;;10.30;99.90;;;;;;5036507;28;20087;-84
2023/05/28 02:18:23;;;;;;;7.20;4.00;;;10.30;99.90;;;;;;5010858;28;20089;-84
2023/05/28 02:20:49;;;;;;;5.72;3.10;;;10.30;99.90;;;;;;5031961;28;20037;-85
2023/05/28 02:23:15;;;;;;;9.93;3.55;;;10.30;99.90;;;;;;5028878;28;20064;-85
2023/05/28 02:25:40;;;;;;;11.52;3.78;;;10.30;99.90;;;;;;5018763;28;20041;-84
2023/05/28 02:28:09;;;;;;;5.25;3.35;;;10.30;99.90;;;;;;5044524;28;20046;-81
2023/05/28 02:30:35;;;;;;;7.05;3.33;;;10.40;99.90;;;;;;4989896;28;20061;-83
2023/05/28 02:33:01;;;;;;;10.35;3.30;;;10.40;99.90;;;;;;5021602;28;20042;-85
2023/05/28 02:35:27;;;;;;;6.25;3.17;;;10.40;99.90;;;;;;5027328;28;20472;-86
2023/05/28 02:37:53;;;;;;;6.82;3.35;;;10.40;99.90;;;;;;5027219;28;20136;-85
2023/05/28 02:40:18;;;;;;;9.13;3.47;;;10.40;99.90;;;;;;5009285;28;20029;-84
2023/05/28 02:42:45;;;;;;;9.25;3.05;;;10.30;99.90;;;;;;5028251;28;20435;-84
2023/05/28 02:45:10;;;;;;;6.53;3.33;;;10.20;99.90;;;;;;5019311;28;20077;-85
2023/05/28 02:47:36;;;;;;;5.60;3.38;;;10.10;99.90;;;;;;5014562;28;20131;-84
2023/05/28 02:50:02;;;;;;;7.32;3.25;;;10.10;99.90;;;;;;5058068;28;20042;-87
2023/05/28 02:52:27;;;;;;;9.00;3.42;;;10.10;99.90;;;;;;5014289;28;20034;-85
2023/05/28 02:54:53;;;;;;;9.55;3.60;;;10.10;99.90;;;;;;5033087;28;20372;-84
2023/05/28 02:57:19;;;;;;;7.30;3.00;;;10.10;99.90;;;;;;5024850;28;20133;-85
2023/05/28 02:59:45;;;;;;;7.40;3.05;;;10.10;99.90;;;;;;5024048;28;20168;-84
2023/05/28 03:02:10;;;;;;;6.30;2.92;;;10.10;99.90;;;;;;4980863;28;20026;-85
2023/05/28 03:04:36;;;;;;;7.90;3.25;;;10.10;99.90;;;;;;5031997;28;20049;-86
2023/05/28 03:07:02;;;;;;;5.35;3.00;;;10.10;99.90;;;;;;5011469;28;20041;-84
2023/05/28 03:09:29;;;;;;;11.03;3.60;;;10.10;99.90;;;;;;4998031;28;20033;-82
2023/05/28 03:11:55;;;;;;;7.43;3.17;;;10.10;99.90;;;;;;5035458;28;20044;-84
2023/05/28 03:14:21;;;;;;;7.35;3.50;;;10.10;99.90;;;;;;5014598;28;20049;-84
2023/05/28 03:16:47;;;;;;;9.70;3.67;;;10.00;99.90;;;;;;5021925;28;20025;-87
2023/05/28 03:19:13;;;;;;;8.30;3.03;;;10.00;99.90;;;;;;5019481;28;20484;-86
2023/05/28 03:21:40;;;;;;;6.43;2.95;;;10.00;99.90;;;;;;5028923;28;20098;-85
2023/05/28 03:24:06;;;;;;;8.65;3.55;;;10.00;99.90;;;;;;4999154;28;20049;-87
2023/05/28 03:26:31;;;;;;;8.95;3.05;;;10.00;99.90;;;;;;4991159;28;20065;-84
2023/05/28 03:28:57;;;;;;;5.28;2.90;;;9.90;99.90;;;;;;5012790;28;20045;-83
2023/05/28 03:31:27;;;;;;;7.72;3.30;;;10.00;99.90;;;;;;4998614;28;20046;-84
2023/05/28 03:33:56;;;;;;;7.07;3.05;;;10.00;99.90;;;;;;5013949;28;20102;-84
2023/05/28 03:36:24;;;;;;;9.82;3.05;;;10.00;99.90;;;;;;5008135;28;20042;-85
2023/05/28 03:38:51;;;;;;;6.88;3.53;;;10.00;99.90;;;;;;5025288;28;20053;-85
2023/05/28 03:41:22;;;;;;;7.60;2.92;;;10.00;99.90;;;;;;5007820;28;20056;-84
2023/05/28 03:43:48;;;;;;;9.10;2.92;;;10.00;99.90;;;;;;5030140;28;20044;-84
2023/05/28 03:46:14;;;;;;;8.52;3.20;;;10.00;99.90;;;;;;4993501;28;20045;-84
2023/05/28 03:48:40;;;;;;;6.75;3.35;;;10.00;99.90;;;;;;5028736;28;20045;-83
2023/05/28 03:51:05;;;;;;;8.15;3.67;;;10.00;99.90;;;;;;5035182;28;20398;-83
2023/05/28 03:53:31;;;;;;;7.70;2.80;;;10.00;99.90;;;;;;4998989;28;20030;-83
2023/05/28 03:55:59;;;;;;;10.15;3.88;;;10.00;99.90;;;;;;5000401;28;20063;-83
2023/05/28 03:58:27;;;;;;;6.43;2.88;;;9.90;99.90;;;;;;5002207;28;20047;-84
2023/05/28 04:00:53;;;;;;;9.82;3.22;;;9.90;99.90;;;;;;5013006;28;20050;-83
2023/05/28 04:03:19;;;;;;;8.93;3.03;;;9.90;99.90;;;;;;5021344;28;20166;-85
2023/05/28 04:05:45;;;;;;;8.88;3.20;;;9.90;99.90;;;;;;5030361;28;20049;-83
2023/05/28 04:08:11;;;;;;;7.05;3.20;;;9.80;99.90;;;;;;5008347;28;20049;-83
2023/05/28 04:10:37;;;;;;;8.13;3.15;;;9.80;99.90;;;;;;4997679;28;20046;-84
2023/05/28 04:13:03;;;;;;;7.93;3.40;;;9.80;99.90;;;;;;5045520;28;20275;-84
2023/05/28 04:15:28;;;;;;;6.72;3.20;;;9.80;99.90;;;;;;5030766;28;20061;-84
2023/05/28 04:17:54;;;;;;;7.05;3.03;;;9.90;99.90;;;;;;5018417;28;20499;-86
2023/05/28 04:20:20;;;;;;;7.20;3.13;;;9.90;99.90;;;;;;4989710;28;20561;-86
2023/05/28 04:22:47;;;;;;;6.18;2.65;;;9.90;99.90;;;;;;5027187;28;20040;-86
2023/05/28 04:25:13;;;;;;;6.10;3.10;;;9.90;99.90;;;;;;4983243;28;20045;-85
2023/05/28 04:27:40;;;;;;;5.75;2.60;;;10.00;99.90;;;;;;5012577;28;20056;-86
2023/05/28 04:30:08;;;;;;;7.47;2.83;;;10.00;99.90;;;;;;4996869;28;20148;-85
2023/05/28 04:32:33;;;;;;;7.35;3.42;;;10.10;99.90;;;;;;5001954;28;20048;-84
2023/05/28 04:35:03;;;;;;;7.28;3.35;;;10.10;99.90;;;;;;4998734;28;20042;-85
2023/05/28 04:37:29;;;;;;;8.93;4.03;;;10.20;99.90;;;;;;5001498;28;20037;-84
2023/05/28 04:39:56;;;;;;;9.10;2.70;;;10.20;99.90;;;;;;5024758;28;20049;-83
2023/05/28 04:42:21;;;;;;;8.55;3.13;;;10.20;99.90;;;;;;5017416;28;20045;-85
2023/05/28 04:44:47;;;;;;;7.28;2.95;;;10.30;99.90;;;;;;5018425;28;20053;-86
2023/05/28 04:47:14;;;;;;;7.80;3.13;;;10.30;99.90;;;;;;5018478;28;20041;-85
2023/05/28 04:49:43;;;;;;;5.75;2.90;;;10.40;99.90;;;;;;5006613;28;20531;-84
2023/05/28 04:52:09;;;;;;;8.52;3.42;;;10.40;99.90;;;;;;5010719;28;20080;-84
2023/05/28 04:54:35;;;;;;;6.28;2.90;;;10.40;99.90;;;;;;5033592;28;20042;-84
2023/05/28 04:57:02;;;;;;;7.28;3.10;;;10.40;99.90;;;;;;5011916;28;20039;-85
2023/05/28 04:59:28;;;;;;;6.55;3.40;;;10.40;99.90;;;;;;4985381;28;20096;-84
2023/05/28 05:01:54;;;;;;;8.30;3.13;;;10.50;99.90;;;;;;5016197;28;20084;-84
2023/05/28 05:04:20;;;;;;;9.20;3.33;;;10.50;99.90;;;;;;5020274;28;20077;-87
2023/05/28 05:06:46;;;;;;;9.98;3.10;;;10.60;99.90;;;;;;5002314;28;20103;-85
2023/05/28 05:09:11;;;;;;;9.82;3.10;;;10.60;99.90;;;;;;5023097;28;20041;-85
2023/05/28 05:11:38;;;;;;;8.98;3.53;;;10.60;99.90;;;;;;5042970;28;20054;-84
2023/05/28 05:14:03;;;;;;;7.72;3.20;;;10.70;99.90;;;;;;5034905;28;20038;-85
2023/05/28 05:16:29;;;;;;;8.50;3.45;;;10.80;99.90;;;;;;5002425;28;20033;-85
2023/05/28 05:18:55;;;;;;;6.03;3.00;;;10.90;99.90;;;;;;5000190;28;20041;-84
2023/05/28 05:21:21;;;;;;;8.13;3.03;;;11.00;99.90;;;;;;5017705;28;20037;-86
2023/05/28 05:23:48;;;;;;;8.20;3.28;;;11.10;99.90;;;;;;5035774;28;20397;-87
2023/05/28 05:26:16;;;;;;;8.40;3.38;;;11.20;99.90;;;;;;5001815;28;20045;-87
2023/05/28 05:28:44;;;;;;;9.15;3.70;;;11.30;99.90;;;;;;5031875;28;20063;-84
2023/05/28 05:31:12;;;;;;;6.63;2.95;;;11.40;99.90;;;;;;5001666;28;20084;-87
2023/05/28 05:33:38;;;;;;;7.82;3.63;;;11.50;99.90;;;;;;5000348;28;20049;-88
2023/05/28 05:36:04;;;;;;;7.18;3.45;;;11.70;99.90;;;;;;5048965;28;20025;-89
2023/05/28 05:38:33;;;;;;;10.02;3.42;;;11.80;99.90;;;;;;5001398;28;20592;-84
2023/05/28 05:41:00;;;;;;;6.75;3.72;;;11.90;99.90;;;;;;5046687;28;20053;-88
2023/05/28 05:43:26;;;;;;;6.70;3.37;;;12.00;99.90;;;;;;5036267;28;20041;-86
2023/05/28 05:45:52;;;;;;;5.68;2.90;;;12.10;99.90;;;;;;5022798;28;20110;-84
2023/05/28 05:48:21;;;;;;;10.27;3.38;;;12.30;99.90;;;;;;5001809;28;20049;-86
2023/05/28 05:50:50;;;;;;;9.70;4.00;;;12.90;99.90;;;;;;5035921;28;20049;-85
2023/05/28 05:53:17;;;;;;;7.68;3.53;;;14.00;99.90;;;;;;5013425;28;20140;-85
2023/05/28 05:55:44;;;;;;;9.10;4.05;;;15.20;99.90;;;;;;5038460;28;20038;-87
2023/05/28 05:58:09;;;;;;;7.28;3.90;;;16.40;99.90;;;;;;5004284;28;20038;-86
2023/05/28 06:00:35;;;;;;;6.72;3.10;;;17.60;99.90;;;;;;5017733;28;20137;-86
2023/05/28 06:03:04;;;;;;;9.60;3.80;;;18.30;99.90;;;;;;4996914;28;20045;-86
2023/05/28 06:05:31;;;;;;;6.47;3.00;;;19.30;99.90;;;;;;5032516;28;20048;-86
2023/05/28 06:07:57;;;;;;;6.57;2.93;;;19.70;99.90;;;;;;5028977;28;20037;-86
2023/05/28 06:10:29;;;;;;;9.43;3.50;;;20.30;99.90;;;;;;5015796;28;20538;-87
2023/05/28 06:13:01;;;;;;;7.43;3.28;;;20.90;99.90;;;;;;5001095;28;20099;-86
2023/05/28 06:15:28;;;;;;;5.68;2.65;;;21.40;99.90;;;;;;5022150;28;20055;-86
2023/05/28 06:17:55;;;;;;;10.30;2.90;;;21.80;99.90;;;;;;5016733;28;20042;-87
2023/05/28 06:20:21;;;;;;;;;;;22.10;99.90;;;;;;5030024;28;20132;-86
2023/05/28 06:22:47;;;;;;;9.82;3.00;;;22.20;99.90;;;;;;5015401;28;19979;-83
2023/05/28 06:25:14;;;;;;;8.13;2.97;;;21.70;99.90;;;;;;5015496;28;20033;-87
2023/05/28 06:27:40;;;;;;;4.50;2.60;;;20.90;99.90;;;;;;5016035;28;20084;-85
2023/05/28 06:30:10;;;;;;;8.85;3.03;;;20.10;99.90;;;;;;5041521;28;20045;-87
2023/05/28 06:32:41;;;;;;;5.55;2.47;;;19.30;99.90;;;;;;5014233;28;20449;-83
2023/05/28 06:35:09;;;;;;;7.15;2.75;;;18.70;99.90;;;;;;5047810;28;20045;-86
2023/05/28 06:37:36;;;;;;;5.25;2.42;;;18.30;99.90;;;;;;5034103;28;20037;-84
2023/05/28 06:40:05;;;;;;;6.03;2.60;;;18.00;99.90;;;;;;5020068;28;20060;-85
2023/05/28 06:42:32;;;;;;;6.45;2.85;;;17.90;99.90;;;;;;4999602;28;20061;-84
2023/05/28 06:45:01;;;;;;;5.82;2.15;;;18.30;99.90;;;;;;4997298;28;20515;-85
2023/05/28 06:47:27;;;;;;;7.82;2.70;;;18.50;99.90;;;;;;5022417;28;20093;-88
2023/05/28 06:49:56;;;;;;;4.53;2.40;;;19.10;99.90;;;;;;5012209;28;20631;-86
2023/05/28 06:52:23;;;;;;;7.80;2.55;;;19.70;99.90;;;;;;5030679;28;20034;-85
2023/05/28 06:54:49;;;;;;;6.05;2.97;;;19.80;99.90;;;;;;5019014;28;20610;-88
2023/05/28 06:57:15;;;;;;;8.27;2.90;;;19.70;99.90;;;;;;5035198;28;20063;-85
2023/05/28 06:59:41;;;;;;;9.13;2.88;;;20.10;99.90;;;;;;5015809;28;20404;-86
2023/05/28 07:02:06;;;;;;;5.30;2.35;;;20.90;99.90;;;;;;5031365;28;20073;-86
2023/05/28 07:04:32;;;;;;;5.40;2.40;;;21.70;99.90;;;;;;5015574;28;20061;-86
2023/05/28 07:06:58;;;;;;;5.88;2.58;;;22.40;99.90;;;;;;5014748;28;20052;-87
2023/05/28 07:09:24;;;;;;;6.10;2.65;;;22.90;99.90;;;;;;5032297;28;20885;-86
2023/05/28 07:11:59;;;;;;;4.32;2.47;;;23.30;99.90;;;;;;5040830;28;20040;-81
2023/05/28 07:14:31;;;;;;;8.07;2.80;;;23.90;84.60;;;;;;5054136;28;20435;-84
2023/05/28 07:16:56;;;;;;;5.93;2.13;;;24.10;99.90;;;;;;5031948;28;20099;-82
2023/05/28 07:19:22;;;;;;;5.22;2.03;;;24.60;93.80;;;;;;5033403;28;20036;-87
2023/05/28 07:21:48;;;;;;;3.03;1.63;;;24.90;87.90;;;;;;5014019;28;20054;-86
2023/05/28 07:24:14;;;;;;;4.77;1.80;;;25.20;81.70;;;;;;4995898;28;20048;-82
2023/05/28 07:26:40;;;;;;;4.00;1.87;;;25.30;79.20;;;;;;5010292;28;20049;-86
2023/05/28 07:29:05;;;;;;;4.57;1.83;;;25.60;77.60;;;;;;4998646;28;20415;-86
2023/05/28 07:31:31;;;;;;;3.53;1.90;;;25.80;75.30;;;;;;5026781;28;20043;-84
2023/05/28 07:33:58;;;;;;;6.93;2.33;;;25.90;73.70;;;;;;5003685;28;20046;-83
2023/05/28 07:36:23;;;;;;;4.70;1.80;;;26.10;72.90;;;;;;5014838;28;20052;-86
2023/05/28 07:38:50;;;;;;;4.47;2.10;;;26.20;71.20;;;;;;5014145;28;20128;-83
2023/05/28 07:41:16;;;;;;;4.82;1.83;;;26.40;69.90;;;;;;5013905;28;20447;-85
2023/05/28 07:43:41;;;;;;;3.33;1.70;;;26.50;69.80;;;;;;5021004;28;20049;-84
2023/05/28 07:46:07;;;;;;;2.93;1.73;;;26.60;67.30;;;;;;5030730;28;20049;-87
2023/05/28 07:48:33;;;;;;;4.47;1.93;;;26.60;67.50;;;;;;5030466;28;20049;-86
2023/05/28 07:50:59;;;;;;;4.47;2.07;;;26.80;66.90;;;;;;5027579;28;20051;-87
2023/05/28 07:53:27;;;;;;;4.00;1.90;;;26.90;66.20;;;;;;5040763;28;20526;-87
2023/05/28 07:55:53;;;;;;;3.28;1.90;;;26.90;65.70;;;;;;5044591;28;20063;-87
2023/05/28 07:58:19;;;;;;;3.25;1.90;;;27.00;64.60;;;;;;5002911;28;20041;-86
2023/05/28 08:00:44;;;;;;;4.07;2.30;;;27.00;63.90;;;;;;5018759;28;20107;-86
2023/05/28 08:03:11;;;;;;;3.10;1.80;;;27.00;62.10;;;;;;5007446;28;20041;-85
2023/05/28 08:05:37;;;;;;;4.15;2.13;;;27.00;61.60;;;;;;4999865;28;20033;-85
2023/05/28 08:08:03;;;;;;;4.15;1.98;;;26.80;60.10;;;;;;5016182;28;20124;-87
2023/05/28 08:10:29;;;;;;;3.70;2.03;;;26.50;60.10;;;;;;5016823;28;21346;-85
2023/05/28 08:12:56;;;;;;;3.70;2.15;;;26.00;60.30;;;;;;5036415;28;20468;-87
2023/05/28 08:15:22;;;;;;;;;;;25.30;60.40;;;;;;5003984;28;20026;-86
2023/05/28 08:17:47;;;;;;;4.40;2.55;;;24.60;59.00;;;;;;5037801;28;20439;-87
2023/05/28 08:20:13;;;;;;;4.03;1.90;;;24.10;62.90;;;;;;5035728;28;20045;-87
2023/05/28 08:22:39;;;;;;;3.60;2.33;;;23.70;63.40;;;;;;5017228;28;20177;-89
2023/05/28 08:25:06;;;;;;;3.05;2.00;;;23.40;63.50;;;;;;5021502;28;20076;-88
2023/05/28 08:27:31;;;;;;;4.47;2.55;;;23.10;62.90;;;;;;5016375;28;20657;-84
2023/05/28 08:29:57;;;;;;;4.47;2.30;;;22.90;63.50;;;;;;5019293;28;20049;-88
2023/05/28 08:32:23;;;;;;;5.57;2.63;;;22.70;63.70;;;;;;5032658;28;20171;-91
2023/05/28 08:34:49;;;;;;;3.70;2.50;;;22.40;63.30;;;;;;5014961;28;20054;-91
2023/05/28 08:40:56;;;;;;;4.68;2.45;;;22.70;63.80;;;;;;5169091;23;20087;-79
2023/05/28 08:43:22;;;;;;;4.18;2.33;;;23.60;63.50;;;;;;4992220;28;20050;-79
2023/05/28 08:45:55;;;;;;;4.27;2.70;;;24.10;62.60;;;;;;5022807;28;20046;-82
2023/05/28 08:48:23;;;;;;;5.88;2.55;;;24.40;62.50;;;;;;5015993;28;20056;-79
2023/05/28 08:50:51;;;;;;;4.72;2.55;;;24.60;63.20;;;;;;5024032;28;20041;-80
2023/05/28 08:53:21;;;;;;;5.00;2.85;;;24.80;63.60;;;;;;5004032;28;20088;-80
2023/05/28 08:55:47;;;;;;;5.20;3.10;;;25.00;63.10;;;;;;5041624;28;20229;-80
2023/05/28 08:58:13;;;;;;;7.40;2.63;;;25.10;63.00;;;;;;5024248;28;20487;-79
2023/05/28 09:00:40;;;;;;;4.50;2.20;;;25.10;63.30;;;;;;5030620;28;20042;-77
2023/05/28 09:03:07;;;;;;;4.60;3.20;;;25.10;63.20;;;;;;5040829;28;20983;-80
2023/05/28 09:05:37;;;;;;;5.80;3.15;;;25.00;63.00;;;;;;4998907;28;20056;-83
2023/05/28 09:08:12;;;;;;;5.20;2.75;;;24.70;63.10;;;;;;5006432;28;20045;-80
2023/05/28 09:10:38;;;;;;;5.22;3.00;;;24.50;63.50;;;;;;5000912;28;20049;-79
2023/05/28 09:13:05;;;;;;;4.93;3.00;;;24.40;64.60;;;;;;4998702;28;20056;-82
2023/05/28 09:15:32;;;;;;;6.43;2.90;;;24.30;64.80;;;;;;4997760;28;20054;-81
2023/05/28 09:17:59;;;;;;;;;;;24.30;64.60;;;;;;5043906;28;20049;-80
2023/05/28 09:20:25;;;;;;;4.38;2.75;;;24.10;61.10;;;;;;5007394;28;19921;-78
2023/05/28 09:23:06;;;;;;;4.90;2.90;;;23.90;64.60;;;;;;5043002;28;20048;-78
2023/05/28 09:25:35;;;;;;;4.97;3.08;;;23.60;63.90;;;;;;5044912;28;20119;-80
2023/05/28 09:28:02;;;;;;;5.30;3.17;;;23.30;64.20;;;;;;5029359;28;20042;-80
2023/05/28 09:30:31;;;;;;;5.53;3.28;;;23.00;64.20;;;;;;5038475;28;20539;-80
2023/05/28 09:33:07;;;;;;;6.57;2.95;;;22.70;64.70;;;;;;5013179;28;20381;-78
2023/05/28 09:35:33;;;;;;;6.88;3.55;;;22.50;64.30;;;;;;5055267;28;20077;-82
2023/05/28 09:38:07;;;;;;;4.40;3.30;;;22.50;64.00;;;;;;5029533;28;20041;-78
2023/05/28 09:40:43;;;;;;;4.55;3.25;;;22.50;63.90;;;;;;5018452;28;20072;-79
2023/05/28 09:43:10;;;;;;;5.73;3.60;;;22.40;63.00;;;;;;4999254;28;20037;-79
2023/05/28 09:45:37;;;;;;;6.30;4.03;;;22.30;62.60;;;;;;5010697;28;20066;-79
2023/05/28 09:48:04;;;;;;;5.03;3.30;;;22.20;62.20;;;;;;4988211;28;20042;-78
2023/05/28 09:50:30;;;;;;;4.47;3.42;;;22.10;62.80;;;;;;5006000;28;20435;-78
2023/05/28 09:52:57;;;;;;;7.43;3.70;;;22.10;62.70;;;;;;5009610;28;20045;-79
2023/05/28 09:55:25;;;;;;;5.93;3.53;;;22.00;62.10;;;;;;4995454;28;20084;-80
2023/05/28 09:58:05;;;;;;;4.90;3.50;;;22.20;62.60;;;;;;4995173;28;20125;-80
2023/05/28 10:00:46;;;;;;;5.72;3.30;;;22.20;61.80;;;;;;5001582;28;20400;-79
2023/05/28 10:03:34;;;;;;;5.75;3.72;;;22.20;62.60;;;;;;5001794;28;20072;-79
2023/05/28 10:06:03;;;;;;;4.88;3.58;;;22.30;62.00;;;;;;5011492;28;20053;-82
2023/05/28 10:08:37;;;;;;;4.75;3.05;;;22.30;61.30;;;;;;5003520;28;20116;-80
2023/05/28 10:11:05;;;;;;;4.65;3.00;;;22.30;61.80;;;;;;4996188;28;20086;-78
2023/05/28 10:13:31;;;;;;;8.80;3.72;;;22.20;61.00;;;;;;5013249;28;20183;-79
2023/05/28 10:15:58;;;;;;;5.63;3.15;;;22.10;61.60;;;;;;5009128;28;20037;-80
2023/05/28 10:18:25;;;;;;;4.85;3.42;;;22.10;61.60;;;;;;5009670;28;20398;-80
2023/05/28 10:20:51;;;;;;;;;;;22.10;60.10;;;;;;4998044;28;20041;-82
2023/05/28 10:23:18;;;;;;;4.70;2.92;;;22.00;59.90;;;;;;5013856;28;19925;-82
2023/05/28 10:25:44;;;;;;;3.88;2.63;;;21.90;59.60;;;;;;5007584;28;20060;-79
2023/05/28 10:28:14;;;;;;;4.70;2.47;;;21.90;59.20;;;;;;4978767;28;20152;-79
2023/05/28 10:30:40;;;;;;;3.88;2.20;;;22.00;58.30;;;;;;4993486;28;20043;-81
2023/05/28 10:33:15;;;;;;;2.90;1.88;;;22.00;58.50;;;;;;4991655;28;21125;-78
2023/05/28 10:35:55;;;;;;;4.25;1.85;;;22.10;57.90;;;;;;4995733;28;20123;-80
2023/05/28 10:38:22;;;;;;;3.72;1.90;;;22.10;58.00;;;;;;4985618;28;20486;-79
2023/05/28 10:40:50;;;;;;;3.83;1.60;;;22.10;57.50;;;;;;5001301;28;20057;-79
2023/05/28 10:43:38;;;;;;;4.90;1.70;;;22.20;57.60;;;;;;5060203;28;20045;-79
2023/05/28 10:46:24;;;;;;;2.85;1.40;;;22.20;57.20;;;;;;5019136;28;20061;-80
2023/05/28 10:49:20;;;;;;;3.42;1.38;;;22.20;56.40;;;;;;4992702;28;20041;-80
2023/05/28 10:52:02;;;;;;;4.50;1.80;;;22.20;56.30;;;;;;5017119;28;20053;-78
2023/05/28 10:54:36;;;;;;;2.67;1.67;;;22.10;55.90;;;;;;5034533;28;20040;-82
2023/05/28 10:57:16;;;;;;;5.10;1.70;;;22.20;57.60;;;;;;5048075;28;20038;-80
2023/05/28 11:00:14;;;;;;;3.42;1.40;;;22.20;57.60;;;;;;5018252;28;20088;-80
2023/05/28 11:02:43;;;;;;;4.88;2.00;;;22.20;58.90;;;;;;5015596;28;20041;-78
2023/05/28 11:05:10;;;;;;;3.38;1.52;;;22.20;60.00;;;;;;4997143;28;20166;-80
2023/05/28 11:07:38;;;;;;;4.55;1.98;;;22.30;60.40;;;;;;4998424;28;20141;-79
2023/05/28 11:10:06;;;;;;;3.70;1.83;;;22.40;61.10;;;;;;5045256;28;20053;-79
2023/05/28 11:12:35;;;;;;;6.55;1.92;;;22.30;61.10;;;;;;5008357;28;20135;-79
2023/05/28 11:15:01;;;;;;;4.40;1.50;;;22.30;61.00;;;;;;5020453;28;20025;-80
2023/05/28 11:17:27;;;;;;;4.27;2.00;;;22.20;61.70;;;;;;5009450;28;20499;-80
2023/05/28 11:19:53;;;;;;;5.28;2.05;;;22.20;61.90;;;;;;4996261;28;20049;-81
2023/05/28 11:22:20;;;;;;;4.30;1.40;;;22.10;62.10;;;;;;5054167;28;20056;-80
2023/05/28 11:25:00;;;;;;;3.65;2.03;;;22.10;62.40;;;;;;5014206;28;20041;-81
2023/05/28 11:27:31;;;;;;;4.15;2.03;;;22.00;62.90;;;;;;5037381;28;20629;-84
2023/05/28 11:29:59;;;;;;;4.70;1.98;;;22.00;63.60;;;;;;5033532;28;20047;-79
2023/05/28 11:32:26;;;;;;;4.57;2.03;;;21.90;64.00;;;;;;5030641;28;20045;-80
2023/05/28 11:34:55;;;;;;;6.07;2.03;;;21.90;64.40;;;;;;5009935;28;20511;-77
2023/05/28 11:39:57;;;;;;;6.57;1.88;;;21.90;65.20;;;;;;4841825;26;20077;-35
2023/05/28 11:42:25;;;;;;;4.25;1.85;;;21.90;65.40;;;;;;5027242;28;20090;-35
2023/05/28 11:48:28;;;;;;;4.43;1.60;;;21.80;66.50;;;;;;4958136;28;20055;-80
2023/05/28 11:51:01;;;;;;;5.43;2.17;;;21.60;66.80;;;;;;4960115;28;20065;-82
2023/05/28 11:53:44;;;;;;;6.72;2.40;;;21.60;67.50;;;;;;4987854;28;20046;-81
2023/05/28 11:56:11;;;;;;;6.15;2.13;;;21.50;68.80;;;;;;4948194;28;20121;-76
2023/05/28 11:58:39;;;;;;;;;;;21.30;69.80;;;;;;4950347;28;20054;-81
2023/05/28 12:01:06;;;;;;;5.82;2.20;;;21.10;70.20;;;;;;4955631;28;19922;-80
2023/05/28 12:03:32;;;;;;;4.70;2.03;;;21.00;70.10;;;;;;4971300;28;20049;-81
2023/05/28 12:06:00;;;;;;;6.10;2.40;;;21.00;71.40;;;;;;4956125;28;20057;-80
2023/05/28 12:08:54;;;;;;;4.22;2.25;;;20.90;71.90;;;;;;4972457;28;20058;-80
2023/05/28 12:11:26;;;;;;;4.88;2.20;;;20.80;73.00;;;;;;4947232;28;20129;-81
2023/05/28 12:13:51;;;;;;;6.30;2.58;;;20.70;73.90;;;;;;4950006;28;20070;-80
2023/05/28 12:16:17;;;;;;;5.20;2.35;;;20.50;74.60;;;;;;4950199;28;20246;-81
2023/05/28 12:18:43;;;;;;;6.13;2.22;;;20.30;75.70;;;;;;4950157;28;20058;-79
2023/05/28 12:21:15;;;;;;;6.15;2.58;;;20.20;77.60;;;;;;4965021;28;20481;-79
2023/05/28 12:23:41;;;;;;;6.60;2.30;;;20.00;79.40;;;;;;4951477;28;20051;-81
2023/05/28 12:26:13;;;;;;;4.57;2.20;;;19.90;84.40;;;;;;4965055;28;20504;-80
2023/05/28 12:28:40;;;;;;;5.78;2.55;;;19.80;90.80;;;;;;4942390;28;20047;-81
2023/05/28 12:31:08;;;;;;;6.78;2.30;;;19.70;95.30;;;;;;4933562;28;20058;-80
2023/05/28 12:33:34;;;;;;;7.10;2.25;;;19.60;99.90;;;;;;4947940;28;20121;-81
2023/05/28 12:36:00;;;;;;;6.38;2.03;;;19.50;99.90;;;;;;4945696;28;20081;-79
2023/05/28 12:38:27;;;;;;;5.65;1.95;;;19.40;99.90;;;;;;4967885;28;20086;-82
2023/05/28 12:40:53;;;;;;;5.30;2.20;;;19.40;99.90;;;;;;4980698;28;20057;-81
2023/05/28 12:43:20;;;;;;;6.45;2.10;;;19.30;99.90;;;;;;4969458;28;20397;-82
2023/05/28 12:45:46;;;;;;;5.60;2.40;;;19.20;99.90;;;;;;4957907;28;20089;-82
2023/05/28 12:48:12;;;;;;;7.20;2.35;;;19.10;99.90;;;;;;4955076;28;20047;-79
2023/05/28 12:50:38;;;;;;;4.97;2.38;;;19.10;99.90;;;;;;4969333;28;20050;-80
2023/05/28 12:53:04;;;;;;;5.53;2.47;;;19.00;99.90;;;;;;4953329;28;20038;-79
2023/05/28 12:55:31;;;;;;;8.25;2.70;;;19.00;99.90;;;;;;4968256;28;20047;-81
2023/05/28 12:57:57;;;;;;;4.63;2.13;;;19.00;99.90;;;;;;4953625;28;20125;-82
2023/05/28 13:00:24;;;;;;;6.80;2.92;;;18.90;99.90;;;;;;4973301;28;20293;-80